Lyster, Canada
Current Conditions -  °F | °C
As of 9:21 AM on Sunday 28 Dec 2014 (Local Time) from CYQB Reporting Station
Haze Haze  
Wind Chill: 27°   Ceiling: 700
Heat Index: 34°   Visibility: 1.5mi
Dew Point: 34°   Wind: 8mph
Humidity: 100%   Direction: 230°SW
Pressure: 29.6"   Gusts: NA
Location:  46.37°N, 71.62°W
Report Text: CYQB 281421Z 23007KT 1 1/2SM BR OVC007 01/01 A2960 RMK ST8 SLP027
Loading
Personal Weather Stations






























Interactive Weather Map New forecast layout! Learn more

10-Day Weather Forecast

Advertisements
Track Severe Weather on mobile